createdAt,value
2023-02-17T00:00:01.508Z,63.70
2023-02-17T00:01:01.483Z,63.80
2023-02-17T00:02:01.421Z,63.80
2023-02-17T00:03:01.370Z,63.23
2023-02-17T00:04:01.324Z,63.13
2023-02-17T00:05:01.283Z,63.70
2023-02-17T00:06:01.233Z,63.32
2023-02-17T00:07:01.212Z,62.94
2023-02-17T00:08:01.161Z,62.85
2023-02-17T00:09:01.101Z,63.60
2023-02-17T00:10:01.060Z,63.80
2023-02-17T00:11:01.009Z,64.18
2023-02-17T00:12:00.961Z,64.18
2023-02-17T00:13:00.927Z,64.08
2023-02-17T00:14:00.871Z,64.47
2023-02-17T00:15:00.824Z,64.65
2023-02-17T00:16:00.831Z,65.42
2023-02-17T00:17:00.733Z,65.51
2023-02-17T00:18:00.690Z,65.51
2023-02-17T00:19:00.713Z,65.03
2023-02-17T00:20:00.595Z,65.48
2023-02-17T00:21:00.545Z,65.77
2023-02-17T00:22:00.550Z,65.77
2023-02-17T00:23:00.486Z,66.33
2023-02-17T00:24:00.504Z,66.33
2023-02-17T00:25:00.364Z,66.81
2023-02-17T00:26:00.352Z,66.62
2023-02-17T00:27:00.282Z,66.43
2023-02-17T00:28:00.250Z,65.86
2023-02-17T00:29:00.207Z,65.48
2023-02-17T00:30:00.169Z,65.95
2023-02-17T00:31:00.175Z,66.24
2023-02-17T00:32:00.212Z,66.14
2023-02-17T00:33:00.003Z,65.95
2023-02-17T00:33:59.970Z,65.48
2023-02-17T00:34:59.925Z,65.19
2023-02-17T00:35:59.865Z,64.62
2023-02-17T00:36:59.838Z,64.05
2023-02-17T00:37:59.774Z,64.15
2023-02-17T00:38:59.729Z,63.99
2023-02-17T00:39:59.683Z,63.99
2023-02-17T00:40:59.653Z,64.37
2023-02-17T00:41:59.600Z,64.08
2023-02-17T00:42:59.557Z,63.80
2023-02-17T00:43:59.508Z,62.65
2023-02-17T00:44:59.457Z,62.65
2023-02-17T00:45:59.407Z,63.13
2023-02-17T00:46:59.362Z,63.60
2023-02-17T00:47:59.323Z,62.56
2023-02-17T00:48:59.289Z,62.56
2023-02-17T00:49:59.225Z,62.56
2023-02-17T00:50:59.194Z,62.75
2023-02-17T00:51:59.135Z,61.80
2023-02-17T00:52:59.095Z,62.08
2023-02-17T00:53:59.045Z,63.13
2023-02-17T00:54:59.007Z,63.04
2023-02-17T00:55:58.975Z,63.13
2023-02-17T00:56:58.931Z,62.56
2023-02-17T00:57:58.867Z,62.27
2023-02-17T00:58:58.813Z,62.46
2023-02-17T00:59:58.774Z,63.32
2023-02-17T01:00:58.748Z,63.42
2023-02-17T01:01:58.745Z,62.18
2023-02-17T01:02:58.629Z,62.18
2023-02-17T01:03:58.586Z,60.85
2023-02-17T01:04:58.571Z,59.99
2023-02-17T01:05:58.498Z,59.99
2023-02-17T01:06:58.448Z,60.18
2023-02-17T01:07:58.436Z,60.21
2023-02-17T01:08:58.360Z,60.49
2023-02-17T01:09:58.310Z,60.69
2023-02-17T01:10:58.266Z,60.97
2023-02-17T01:11:58.225Z,61.51
2023-02-17T01:12:58.177Z,61.80
2023-02-17T01:13:58.145Z,60.85
2023-02-17T01:14:58.082Z,60.56
2023-02-17T01:15:58.076Z,60.78
2023-02-17T01:16:57.997Z,59.99
2023-02-17T01:17:57.944Z,60.18
2023-02-17T01:18:57.917Z,59.03
2023-02-17T01:19:57.857Z,58.30
2023-02-17T01:20:57.809Z,58.02
2023-02-17T01:21:57.778Z,57.45
2023-02-17T01:22:57.716Z,56.78
2023-02-17T01:23:57.685Z,56.78
2023-02-17T01:24:57.640Z,57.07
2023-02-17T01:25:57.581Z,56.21
2023-02-17T01:26:57.542Z,56.87
2023-02-17T01:27:57.490Z,56.40
2023-02-17T01:28:57.445Z,55.54
2023-02-17T01:29:57.455Z,55.07
2023-02-17T01:30:57.431Z,54.11
2023-02-17T01:31:57.325Z,54.21
2023-02-17T01:32:57.265Z,53.85
2023-02-17T01:33:57.217Z,53.38
2023-02-17T01:34:57.174Z,53.56
2023-02-17T01:35:57.135Z,53.85
2023-02-17T01:36:57.092Z,53.66
2023-02-17T01:37:57.036Z,53.47
2023-02-17T01:38:56.988Z,53.09
2023-02-17T01:39:56.942Z,53.28
2023-02-17T01:40:56.914Z,53.19
2023-02-17T01:41:56.865Z,52.71
2023-02-17T01:42:56.811Z,53.19
2023-02-17T01:43:56.764Z,52.42
2023-02-17T01:44:56.716Z,52.04
2023-02-17T01:45:56.669Z,52.04
2023-02-17T01:46:56.818Z,52.23
2023-02-17T01:47:56.575Z,51.85
2023-02-17T01:48:56.532Z,51.88
2023-02-17T01:49:56.490Z,51.76
2023-02-17T01:50:56.450Z,51.88
2023-02-17T01:51:56.413Z,51.88
2023-02-17T01:52:56.365Z,51.97
2023-02-17T01:53:56.308Z,51.37
2023-02-17T01:54:56.258Z,51.97
2023-02-17T01:55:56.212Z,52.83
2023-02-17T01:56:56.185Z,53.78
2023-02-17T01:57:56.228Z,53.88
2023-02-17T01:58:56.078Z,54.52
2023-02-17T01:59:56.033Z,55.28
2023-02-17T02:00:55.993Z,56.33
2023-02-17T02:01:56.023Z,56.14
2023-02-17T02:02:56.054Z,56.04
2023-02-17T02:03:55.869Z,56.04
2023-02-17T02:04:55.873Z,56.43
2023-02-17T02:05:55.759Z,56.24
2023-02-17T02:06:55.713Z,57.00
2023-02-17T02:07:55.680Z,57.73
2023-02-17T02:08:55.682Z,58.02
2023-02-17T02:09:55.582Z,58.11
2023-02-17T02:10:55.538Z,58.50
2023-02-17T02:11:55.499Z,58.11
2023-02-17T02:12:55.446Z,58.21
2023-02-17T02:13:55.410Z,57.54
2023-02-17T02:14:55.356Z,58.59
2023-02-17T02:15:55.326Z,58.69
2023-02-17T02:16:55.268Z,58.02
2023-02-17T02:17:55.233Z,58.30
2023-02-17T02:18:55.178Z,58.69
2023-02-17T02:19:55.130Z,58.87
2023-02-17T02:20:55.092Z,58.78
2023-02-17T02:21:55.039Z,58.30
2023-02-17T02:22:55.009Z,58.30
2023-02-17T02:23:54.952Z,58.97
2023-02-17T02:24:54.906Z,58.78
2023-02-17T02:25:54.869Z,58.97
2023-02-17T02:26:54.814Z,58.87
2023-02-17T02:27:54.764Z,59.26
2023-02-17T02:28:54.744Z,59.16
2023-02-17T02:29:54.681Z,58.87
2023-02-17T02:30:54.642Z,59.45
2023-02-17T02:31:54.658Z,59.16
2023-02-17T02:32:54.537Z,58.87
2023-02-17T02:33:54.495Z,58.30
2023-02-17T02:34:54.465Z,57.73
2023-02-17T02:35:54.403Z,57.73
2023-02-17T02:36:54.361Z,57.73
2023-02-17T02:37:54.316Z,58.30
2023-02-17T02:38:54.270Z,58.50
2023-02-17T02:39:54.248Z,58.02
2023-02-17T02:40:54.353Z,58.11
2023-02-17T02:41:54.131Z,57.26
2023-02-17T02:42:54.087Z,57.07
2023-02-17T02:43:54.039Z,56.11
2023-02-17T02:44:53.999Z,56.11
2023-02-17T02:45:54.013Z,56.02
2023-02-17T02:46:53.930Z,55.73
2023-02-17T02:47:53.863Z,55.35
2023-02-17T02:48:53.822Z,54.49
2023-02-17T02:49:53.771Z,54.49
2023-02-17T02:50:53.719Z,54.43
2023-02-17T02:51:53.676Z,54.33
2023-02-17T02:52:53.653Z,53.85
2023-02-17T02:53:53.588Z,53.95
2023-02-17T02:54:53.541Z,53.85
2023-02-17T02:55:53.497Z,54.33
2023-02-17T02:56:53.498Z,54.04
2023-02-17T02:57:53.404Z,53.85
2023-02-17T02:58:53.382Z,53.95
2023-02-17T02:59:53.319Z,53.85
2023-02-17T03:00:53.287Z,53.09
2023-02-17T03:01:53.217Z,53.28
2023-02-17T03:02:53.360Z,53.09
2023-02-17T03:03:53.162Z,53.09
2023-02-17T03:04:53.088Z,53.28
2023-02-17T03:05:53.041Z,53.95
2023-02-17T03:06:52.994Z,54.24
2023-02-17T03:07:52.951Z,55.28
2023-02-17T03:08:52.933Z,55.47
2023-02-17T03:09:52.857Z,54.97
2023-02-17T03:10:52.828Z,56.11
2023-02-17T03:11:52.770Z,56.97
2023-02-17T03:12:52.729Z,57.54
2023-02-17T03:13:52.678Z,59.06
2023-02-17T03:14:52.657Z,59.83
2023-02-17T03:15:52.590Z,60.49
2023-02-17T03:16:52.550Z,61.35
2023-02-17T03:17:52.496Z,61.83
2023-02-17T03:18:52.456Z,63.07
2023-02-17T03:19:52.402Z,63.92
2023-02-17T03:20:52.385Z,62.59
2023-02-17T03:21:52.317Z,61.73
2023-02-17T03:22:52.265Z,60.30
2023-02-17T03:23:52.220Z,60.75
2023-02-17T03:24:52.178Z,60.66
2023-02-17T03:25:52.134Z,61.80
2023-02-17T03:26:52.159Z,61.90
2023-02-17T03:27:52.037Z,61.13
2023-02-17T03:28:51.997Z,60.46
2023-02-17T03:29:51.944Z,59.99
2023-02-17T03:30:51.922Z,59.70
2023-02-17T03:31:51.937Z,58.75
2023-02-17T03:32:51.821Z,58.47
2023-02-17T03:33:51.770Z,58.65
2023-02-17T03:34:51.720Z,59.13
2023-02-17T03:35:51.689Z,58.94
2023-02-17T03:36:51.628Z,58.84
2023-02-17T03:37:51.580Z,58.65
2023-02-17T03:38:51.538Z,58.47
2023-02-17T03:39:51.498Z,58.50
2023-02-17T03:40:51.447Z,58.59
2023-02-17T03:41:51.415Z,58.50
2023-02-17T03:42:51.351Z,58.02
2023-02-17T03:43:51.310Z,57.92
2023-02-17T03:44:51.268Z,57.45
2023-02-17T03:45:51.240Z,58.02
2023-02-17T03:46:51.169Z,57.45
2023-02-17T03:47:51.138Z,57.26
2023-02-17T03:48:51.090Z,57.45
2023-02-17T03:49:51.037Z,57.54
2023-02-17T03:50:50.987Z,57.35
2023-02-17T03:51:50.941Z,57.16
2023-02-17T03:52:50.900Z,57.45
2023-02-17T03:53:50.870Z,56.78
2023-02-17T03:54:50.804Z,56.02
2023-02-17T03:55:50.763Z,55.07
2023-02-17T03:56:50.714Z,55.26
2023-02-17T03:57:50.683Z,55.35
2023-02-17T03:58:50.624Z,55.28
2023-02-17T03:59:50.577Z,55.38
2023-02-17T04:00:50.549Z,55.28
2023-02-17T04:01:50.487Z,55.28
2023-02-17T04:02:50.437Z,55.28
2023-02-17T04:03:50.422Z,55.38
2023-02-17T04:04:50.344Z,55.19
2023-02-17T04:05:50.317Z,55.00
2023-02-17T04:06:50.257Z,54.04
2023-02-17T04:07:50.207Z,53.85
2023-02-17T04:08:50.163Z,53.76
2023-02-17T04:09:50.133Z,54.61
2023-02-17T04:10:50.072Z,55.38
2023-02-17T04:11:50.071Z,55.19
2023-02-17T04:12:49.984Z,54.52
2023-02-17T04:13:49.940Z,54.43
2023-02-17T04:14:49.892Z,54.04
2023-02-17T04:15:49.927Z,53.76
2023-02-17T04:16:49.802Z,53.56
2023-02-17T04:17:49.773Z,53.56
2023-02-17T04:18:49.728Z,53.76
2023-02-17T04:19:49.668Z,54.14
2023-02-17T04:20:49.642Z,54.52
2023-02-17T04:21:49.574Z,53.95
2023-02-17T04:22:49.533Z,54.04
2023-02-17T04:23:49.536Z,54.14
2023-02-17T04:24:49.451Z,54.33
2023-02-17T04:25:49.395Z,53.76
2023-02-17T04:26:49.354Z,53.76
2023-02-17T04:27:49.304Z,54.24
2023-02-17T04:28:49.264Z,53.66
2023-02-17T04:29:49.241Z,53.85
2023-02-17T04:30:49.235Z,53.95
2023-02-17T04:31:49.226Z,53.76
2023-02-17T04:32:49.077Z,53.66
2023-02-17T04:33:49.036Z,53.66
2023-02-17T04:34:48.987Z,53.28
2023-02-17T04:35:48.963Z,53.00
2023-02-17T04:36:48.896Z,53.00
2023-02-17T04:37:48.854Z,53.00
2023-02-17T04:38:48.807Z,53.47
2023-02-17T04:39:48.762Z,54.24
2023-02-17T04:40:48.719Z,54.52
2023-02-17T04:41:48.704Z,55.38
2023-02-17T04:42:48.624Z,55.66
2023-02-17T04:43:48.582Z,56.24
2023-02-17T04:44:48.535Z,57.00
2023-02-17T04:45:48.511Z,56.62
2023-02-17T04:46:48.440Z,56.33
2023-02-17T04:47:48.411Z,56.14
2023-02-17T04:48:48.351Z,55.66
2023-02-17T04:49:48.334Z,55.95
2023-02-17T04:50:48.267Z,56.04
2023-02-17T04:51:48.220Z,56.24
2023-02-17T04:52:48.182Z,56.04
2023-02-17T04:53:48.133Z,54.52
2023-02-17T04:54:48.084Z,54.52
2023-02-17T04:55:48.055Z,53.95
2023-02-17T04:56:47.993Z,53.38
2023-02-17T04:57:47.947Z,52.90
2023-02-17T04:58:47.901Z,52.90
2023-02-17T04:59:47.857Z,53.00
2023-02-17T05:00:47.813Z,52.42
2023-02-17T05:01:47.857Z,52.80
2023-02-17T05:02:47.730Z,51.95
2023-02-17T05:03:47.676Z,52.14
2023-02-17T05:04:47.646Z,51.95
2023-02-17T05:05:47.587Z,52.33
2023-02-17T05:06:47.540Z,51.95
2023-02-17T05:07:47.509Z,52.04
2023-02-17T05:08:47.451Z,51.95
2023-02-17T05:09:47.414Z,51.85
2023-02-17T05:10:47.371Z,51.95
2023-02-17T05:11:47.330Z,51.76
2023-02-17T05:12:47.273Z,52.14
2023-02-17T05:13:47.223Z,51.85
2023-02-17T05:14:47.180Z,51.56
2023-02-17T05:15:47.151Z,51.76
2023-02-17T05:16:47.089Z,52.04
2023-02-17T05:17:47.088Z,51.76
2023-02-17T05:18:46.997Z,51.37
2023-02-17T05:19:46.951Z,51.76
2023-02-17T05:20:46.910Z,51.85
2023-02-17T05:21:46.860Z,52.33
2023-02-17T05:22:46.822Z,52.14
2023-02-17T05:23:46.790Z,52.14
2023-02-17T05:24:46.735Z,51.85
2023-02-17T05:25:46.703Z,51.95
2023-02-17T05:26:46.650Z,52.04
2023-02-17T05:27:46.596Z,51.95
2023-02-17T05:28:46.547Z,51.56
2023-02-17T05:29:46.504Z,51.56
2023-02-17T05:30:46.476Z,50.99
2023-02-17T05:31:46.521Z,51.76
2023-02-17T05:32:46.380Z,51.47
2023-02-17T05:33:46.324Z,51.95
2023-02-17T05:34:46.275Z,51.95
2023-02-17T05:35:46.231Z,51.85
2023-02-17T05:36:46.179Z,51.66
2023-02-17T05:37:46.133Z,51.47
2023-02-17T05:38:46.134Z,51.66
2023-02-17T05:39:46.043Z,51.85
2023-02-17T05:40:46.002Z,51.18
2023-02-17T05:41:45.959Z,50.99
2023-02-17T05:42:45.918Z,51.18
2023-02-17T05:43:45.880Z,51.47
2023-02-17T05:44:54.426Z,51.37
2023-02-17T05:45:45.949Z,51.28
2023-02-17T05:46:45.797Z,51.47
2023-02-17T05:47:45.688Z,51.28
2023-02-17T05:48:45.816Z,51.37
2023-02-17T05:49:45.770Z,51.28
2023-02-17T05:50:45.579Z,51.85
2023-02-17T05:51:45.788Z,51.85
2023-02-17T05:52:45.458Z,51.47
2023-02-17T05:53:45.420Z,51.76
2023-02-17T05:54:45.650Z,51.56
2023-02-17T05:55:46.266Z,51.95
2023-02-17T05:56:45.518Z,51.28
2023-02-17T05:57:45.239Z,51.18
2023-02-17T05:58:45.328Z,51.47
2023-02-17T05:59:45.142Z,50.32
2023-02-17T06:03:48.113Z,50.80
2023-02-17T06:04:48.375Z,51.16
2023-02-17T06:05:47.995Z,51.25
2023-02-17T06:06:48.050Z,51.06
2023-02-17T06:07:47.955Z,51.35
2023-02-17T06:08:48.064Z,51.06
2023-02-17T06:09:47.874Z,51.06
2023-02-17T06:10:47.875Z,51.06
2023-02-17T06:11:47.716Z,51.76
2023-02-17T06:12:47.888Z,51.35
2023-02-17T06:13:47.642Z,50.90
2023-02-17T06:14:47.699Z,51.18
2023-02-17T06:15:47.559Z,50.80
2023-02-17T06:16:47.611Z,51.56
2023-02-17T06:17:47.490Z,50.52
2023-02-17T06:18:47.629Z,50.42
2023-02-17T06:19:47.364Z,50.42
2023-02-17T06:20:47.435Z,50.23
2023-02-17T06:21:47.263Z,50.42
2023-02-17T06:22:47.466Z,50.23
2023-02-17T06:23:47.300Z,50.42
2023-02-17T06:24:47.270Z,50.42
2023-02-17T06:25:47.084Z,49.95
2023-02-17T06:26:47.277Z,49.85
2023-02-17T06:27:46.989Z,49.85
2023-02-17T06:28:46.972Z,50.42
2023-02-17T06:29:47.102Z,50.42
2023-02-17T06:30:46.857Z,50.52
2023-02-17T06:31:47.060Z,49.56
2023-02-17T06:32:46.756Z,49.95
2023-02-17T06:33:46.936Z,49.56
2023-02-17T06:34:46.662Z,49.47
2023-02-17T06:35:46.926Z,49.66
2023-02-17T06:36:46.578Z,49.37
2023-02-17T06:37:46.737Z,49.85
2023-02-17T06:38:46.531Z,49.95
2023-02-17T06:39:46.547Z,49.66
2023-02-17T06:40:46.555Z,49.76
2023-02-17T06:41:46.516Z,49.08
2023-02-17T06:42:46.470Z,49.18
2023-02-17T06:43:46.259Z,49.47
2023-02-17T06:44:46.488Z,49.18
2023-02-17T06:45:46.211Z,49.95
2023-02-17T06:46:46.115Z,49.76
2023-02-17T06:47:46.350Z,49.95
2023-02-17T06:48:46.304Z,49.40
2023-02-17T06:49:45.981Z,49.21
2023-02-17T06:50:47.146Z,49.87
2023-02-17T06:51:45.893Z,49.40
2023-02-17T06:52:45.850Z,49.40
2023-02-17T06:53:45.939Z,49.11
2023-02-17T06:54:45.757Z,49.87
2023-02-17T06:55:45.946Z,49.49
2023-02-17T06:56:45.811Z,49.68
2023-02-17T06:57:45.628Z,49.30
2023-02-17T06:58:45.574Z,49.11
2023-02-17T06:59:45.686Z,49.78
2023-02-17T07:00:45.482Z,49.21
2023-02-17T07:01:45.745Z,49.30
2023-02-17T07:02:45.549Z,49.78
2023-02-17T07:03:45.499Z,49.59
2023-02-17T07:04:45.309Z,49.49
2023-02-17T07:05:45.612Z,49.87
2023-02-17T07:06:45.260Z,49.40
2023-02-17T07:07:45.469Z,49.68
2023-02-17T07:08:45.131Z,49.49
2023-02-17T07:09:45.079Z,49.30
2023-02-17T07:10:45.292Z,50.07
2023-02-17T07:11:45.277Z,49.97
2023-02-17T07:12:44.953Z,49.80
2023-02-17T07:13:45.062Z,49.90
2023-02-17T07:14:44.948Z,49.62
2023-02-17T07:15:45.125Z,49.49
2023-02-17T07:16:44.807Z,49.40
2023-02-17T07:17:44.993Z,48.66
2023-02-17T07:18:53.147Z,48.57
2023-02-17T07:19:44.808Z,48.57
2023-02-17T07:20:44.639Z,48.18
2023-02-17T07:21:44.557Z,47.80
2023-02-17T07:22:44.502Z,47.71
2023-02-17T07:23:44.641Z,47.89
2023-02-17T07:24:44.414Z,47.80
2023-02-17T07:25:50.998Z,47.13
2023-02-17T07:26:44.314Z,47.61
2023-02-17T07:27:44.274Z,47.42
2023-02-17T07:28:52.681Z,47.89
2023-02-17T07:29:44.511Z,47.89
2023-02-17T07:30:44.190Z,47.42
2023-02-17T07:31:44.277Z,47.52
2023-02-17T07:32:44.276Z,47.32
2023-02-17T07:33:44.011Z,47.42
2023-02-17T07:34:44.096Z,47.61
2023-02-17T07:35:43.940Z,47.80
2023-02-17T07:36:44.310Z,47.71
2023-02-17T07:37:43.823Z,47.61
2023-02-17T07:38:43.916Z,47.99
2023-02-17T07:39:43.923Z,47.52
2023-02-17T07:40:43.707Z,47.32
2023-02-17T07:41:43.933Z,47.80
2023-02-17T07:42:43.605Z,47.61
2023-02-17T07:43:43.748Z,47.03
2023-02-17T07:44:43.506Z,47.23
2023-02-17T07:45:43.541Z,47.32
2023-02-17T07:46:46.851Z,48.02
2023-02-17T07:47:43.398Z,47.73
2023-02-17T07:48:43.582Z,48.88
2023-02-17T07:49:43.290Z,48.68
2023-02-17T07:50:43.384Z,48.59
2023-02-17T07:51:43.392Z,48.78
2023-02-17T07:52:43.157Z,48.49
2023-02-17T07:53:43.410Z,48.88
2023-02-17T07:54:43.070Z,47.63
2023-02-17T07:55:43.236Z,47.34
2023-02-17T07:56:43.032Z,46.58
2023-02-17T07:57:42.928Z,46.48
2023-02-17T07:58:43.031Z,46.11
2023-02-17T07:59:42.838Z,45.92
2023-02-17T08:00:43.090Z,45.92
2023-02-17T08:01:43.367Z,45.92
2023-02-17T08:02:43.104Z,45.82
2023-02-17T08:03:42.879Z,45.92
2023-02-17T08:04:42.616Z,46.20
2023-02-17T08:05:42.773Z,46.48
2023-02-17T08:06:42.526Z,46.77
2023-02-17T08:07:42.799Z,47.27
2023-02-17T08:08:42.482Z,46.99
2023-02-17T08:09:42.391Z,47.18
2023-02-17T08:10:42.502Z,47.18
2023-02-17T08:11:43.943Z,47.37
2023-02-17T08:12:42.519Z,47.18
2023-02-17T08:13:42.222Z,47.47
2023-02-17T08:14:42.532Z,46.22
2023-02-17T08:15:42.137Z,46.13
2023-02-17T08:16:42.419Z,46.03
2023-02-17T08:17:42.056Z,46.03
2023-02-17T08:18:44.209Z,46.51
2023-02-17T08:19:49.269Z,47.08
2023-02-17T08:20:42.173Z,47.08
2023-02-17T08:21:41.867Z,45.75
2023-02-17T08:22:41.984Z,45.94
2023-02-17T08:23:41.782Z,46.32
2023-02-17T08:24:42.008Z,46.61
2023-02-17T08:25:41.692Z,47.08
2023-02-17T08:26:42.016Z,47.08
2023-02-17T08:27:41.612Z,47.27
2023-02-17T08:28:41.827Z,47.20
2023-02-17T08:29:41.539Z,46.42
2023-02-17T08:30:41.725Z,46.13
2023-02-17T08:31:41.487Z,46.32
2023-02-17T08:32:41.656Z,45.87
2023-02-17T08:33:41.337Z,45.75
2023-02-17T08:34:41.470Z,45.75
2023-02-17T08:35:43.696Z,45.94
2023-02-17T08:36:41.505Z,45.75
2023-02-17T08:37:41.160Z,46.22
2023-02-17T08:38:42.306Z,46.63
2023-02-17T08:39:41.073Z,47.30
2023-02-17T08:40:41.337Z,46.63
2023-02-17T08:41:41.025Z,46.06
2023-02-17T08:42:41.106Z,46.15
2023-02-17T08:43:40.909Z,46.13
2023-02-17T08:44:41.118Z,46.51
2023-02-17T08:45:40.813Z,46.61
2023-02-17T08:46:41.017Z,47.08
2023-02-17T08:47:40.983Z,48.25
2023-02-17T08:48:41.973Z,48.64
2023-02-17T08:49:40.668Z,49.30
2023-02-17T08:50:40.779Z,49.40
2023-02-17T08:51:41.782Z,49.59
2023-02-17T08:52:40.510Z,48.44
2023-02-17T08:53:40.790Z,48.83
2023-02-17T08:54:40.643Z,48.64
2023-02-17T08:55:48.843Z,48.64
2023-02-17T08:56:40.325Z,48.44
2023-02-17T08:57:40.360Z,48.54
2023-02-17T08:58:40.435Z,48.44
2023-02-17T08:59:40.209Z,48.83
2023-02-17T09:00:41.440Z,48.54
2023-02-17T09:01:40.161Z,48.64
2023-02-17T09:02:40.367Z,47.87
2023-02-17T09:03:41.410Z,48.07
2023-02-17T09:04:40.179Z,48.16
2023-02-17T09:05:39.941Z,48.44
2023-02-17T09:06:40.105Z,48.44
2023-02-17T09:07:39.857Z,48.44
2023-02-17T09:08:39.820Z,48.25
2023-02-17T09:09:39.761Z,48.57
2023-02-17T09:10:41.001Z,48.18
2023-02-17T09:11:39.674Z,47.52
2023-02-17T09:12:39.814Z,47.13
2023-02-17T09:13:39.641Z,47.32
2023-02-17T09:14:39.876Z,47.23
2023-02-17T09:15:39.570Z,47.44
2023-02-17T09:16:41.387Z,47.16
2023-02-17T09:17:39.450Z,47.34
2023-02-17T09:18:39.655Z,47.16
2023-02-17T09:19:39.376Z,46.58
2023-02-17T09:20:39.314Z,46.58
2023-02-17T09:21:39.491Z,46.31
2023-02-17T09:22:39.238Z,46.22
2023-02-17T09:23:40.559Z,45.57
2023-02-17T09:24:39.165Z,45.67
2023-02-17T09:25:39.311Z,45.76
2023-02-17T09:26:39.121Z,45.00
2023-02-17T09:27:39.012Z,44.90
2023-02-17T09:28:39.167Z,44.90
2023-02-17T09:29:38.944Z,45.00
2023-02-17T09:30:39.051Z,45.96
2023-02-17T09:31:38.885Z,45.76
2023-02-17T09:32:38.968Z,45.00
2023-02-17T09:33:38.730Z,45.00
2023-02-17T09:34:38.726Z,45.45
2023-02-17T09:35:38.706Z,45.17
2023-02-17T09:36:38.742Z,46.03
2023-02-17T09:37:38.587Z,46.12
2023-02-17T09:38:38.647Z,46.31
2023-02-17T09:39:38.555Z,46.61
2023-02-17T09:40:38.453Z,46.80
2023-02-17T09:41:38.575Z,47.37
2023-02-17T09:42:38.392Z,46.61
2023-02-17T09:43:38.483Z,47.08
2023-02-17T09:44:38.292Z,47.18
2023-02-17T09:45:38.370Z,46.80
2023-02-17T09:46:38.244Z,46.51
2023-02-17T09:47:38.311Z,46.70
2023-02-17T09:48:38.089Z,46.62
2023-02-17T09:49:38.150Z,46.34
2023-02-17T09:50:38.357Z,46.53
2023-02-17T09:51:37.970Z,46.44
2023-02-17T09:52:38.180Z,46.62
2023-02-17T09:53:37.915Z,46.62
2023-02-17T09:54:37.947Z,46.25
2023-02-17T09:55:37.788Z,45.96
2023-02-17T09:56:37.781Z,46.05
2023-02-17T09:57:37.832Z,46.44
2023-02-17T09:58:37.745Z,46.62
2023-02-17T09:59:37.883Z,45.96
2023-02-17T10:00:37.577Z,46.34
2023-02-17T10:01:37.608Z,47.20
2023-02-17T10:02:37.520Z,47.49
2023-02-17T10:03:37.684Z,46.72
2023-02-17T10:04:37.452Z,46.72
2023-02-17T10:05:37.436Z,47.30
2023-02-17T10:06:37.408Z,47.30
2023-02-17T10:07:37.291Z,46.72
2023-02-17T10:08:37.241Z,46.72
2023-02-17T10:09:37.460Z,46.72
2023-02-17T10:10:37.181Z,46.53
2023-02-17T10:11:38.193Z,46.72
2023-02-17T10:12:37.064Z,47.39
2023-02-17T10:13:37.078Z,46.62
2023-02-17T10:14:37.006Z,46.44
2023-02-17T10:15:37.195Z,46.44
2023-02-17T10:16:36.929Z,46.62
2023-02-17T10:17:37.015Z,46.25
2023-02-17T10:18:36.905Z,46.44
2023-02-17T10:19:44.794Z,46.72
2023-02-17T10:20:38.857Z,46.55
2023-02-17T10:21:44.913Z,47.03
2023-02-17T10:22:36.819Z,46.55
2023-02-17T10:23:36.602Z,46.46
2023-02-17T10:24:36.685Z,46.26
2023-02-17T10:25:44.912Z,45.52
2023-02-17T10:26:37.577Z,45.62
2023-02-17T10:27:36.425Z,45.43
2023-02-17T10:28:36.502Z,45.07
2023-02-17T10:29:36.453Z,44.59
2023-02-17T10:30:36.406Z,44.20
2023-02-17T10:31:36.359Z,44.23
2023-02-17T10:32:36.600Z,43.24
2023-02-17T10:33:36.260Z,42.98
2023-02-17T10:34:36.333Z,43.74
2023-02-17T10:35:36.183Z,43.57
2023-02-17T10:36:36.084Z,42.64
2023-02-17T10:37:37.254Z,42.18
2023-02-17T10:38:36.121Z,41.43
2023-02-17T10:39:35.934Z,40.39
2023-02-17T10:40:36.144Z,40.03
2023-02-17T10:41:35.856Z,39.26
2023-02-17T10:42:35.813Z,38.41
2023-02-17T10:43:35.954Z,38.12
2023-02-17T10:44:35.777Z,37.77
2023-02-17T10:45:35.862Z,37.19
2023-02-17T10:46:35.731Z,36.33
2023-02-17T10:47:35.878Z,36.52
2023-02-17T10:48:35.585Z,36.93
2023-02-17T10:49:35.684Z,36.23
2023-02-17T10:50:35.501Z,36.23
2023-02-17T10:51:36.949Z,36.04
2023-02-17T10:52:35.444Z,36.51
2023-02-17T10:53:35.516Z,37.26
2023-02-17T10:54:35.358Z,37.83
2023-02-17T10:55:35.526Z,38.12
2023-02-17T10:56:35.276Z,37.93
2023-02-17T10:57:35.340Z,38.12
2023-02-17T10:58:35.397Z,38.68
2023-02-17T10:59:35.161Z,38.87
2023-02-17T11:00:35.172Z,39.62
2023-02-17T11:01:35.158Z,40.01
2023-02-17T11:02:35.047Z,40.68
2023-02-17T11:03:57.127Z,40.85
2023-02-17T11:04:34.961Z,41.43
2023-02-17T11:05:34.984Z,41.72
2023-02-17T11:06:36.070Z,42.00
2023-02-17T11:07:35.010Z,41.82
2023-02-17T11:08:34.803Z,41.72
2023-02-17T11:09:34.834Z,41.70
2023-02-17T11:10:34.736Z,41.99
2023-02-17T11:11:34.682Z,42.56
2023-02-17T11:12:34.681Z,43.60
2023-02-17T11:13:35.876Z,43.31
2023-02-17T11:14:34.574Z,43.50
2023-02-17T11:15:34.666Z,43.81
2023-02-17T11:16:34.488Z,43.21
2023-02-17T11:17:34.445Z,43.70
2023-02-17T11:18:34.410Z,43.43
2023-02-17T11:19:34.536Z,43.62
2023-02-17T11:20:34.323Z,43.52
2023-02-17T11:21:35.513Z,43.71
2023-02-17T11:22:34.244Z,43.71
2023-02-17T11:23:34.360Z,44.48
2023-02-17T11:24:34.310Z,43.71
2023-02-17T11:25:34.135Z,44.87
2023-02-17T11:26:34.318Z,44.20
2023-02-17T11:27:34.040Z,44.10
2023-02-17T11:28:35.170Z,44.37
2023-02-17T11:29:34.244Z,44.68
2023-02-17T11:30:33.978Z,45.06
2023-02-17T11:31:34.935Z,44.77
2023-02-17T11:32:34.060Z,44.10
2023-02-17T11:33:33.804Z,44.58
2023-02-17T11:34:34.899Z,44.70
2023-02-17T11:35:33.754Z,44.02
2023-02-17T11:36:33.892Z,44.60
2023-02-17T11:37:33.650Z,44.00
2023-02-17T11:38:33.716Z,44.38
2023-02-17T11:39:33.561Z,45.32
2023-02-17T11:40:33.707Z,44.96
2023-02-17T11:41:33.926Z,44.87
2023-02-17T11:42:33.444Z,45.15
2023-02-17T11:43:33.529Z,44.96
2023-02-17T11:44:33.363Z,45.35
2023-02-17T11:45:33.549Z,44.68
2023-02-17T11:46:33.285Z,44.38
2023-02-17T11:47:33.354Z,45.32
2023-02-17T11:48:33.199Z,45.81
2023-02-17T11:49:33.276Z,45.81
2023-02-17T11:50:41.375Z,45.90
2023-02-17T11:51:33.337Z,46.02
2023-02-17T11:52:33.037Z,45.83
2023-02-17T11:53:33.006Z,46.21
2023-02-17T11:54:33.127Z,45.81
2023-02-17T11:55:32.957Z,45.71
2023-02-17T11:56:33.120Z,45.90
2023-02-17T11:57:32.841Z,46.00
2023-02-17T11:58:32.796Z,46.00
2023-02-17T11:59:32.957Z,46.96
2023-02-17T12:00:32.752Z,46.86
2023-02-17T12:01:32.953Z,46.77
2023-02-17T12:02:32.656Z,46.31
2023-02-17T12:03:33.877Z,45.90
2023-02-17T12:04:32.546Z,45.81
2023-02-17T12:05:32.663Z,45.52
2023-02-17T12:06:32.468Z,45.92
2023-02-17T12:07:32.688Z,45.83
2023-02-17T12:08:32.394Z,45.25
2023-02-17T12:09:32.591Z,44.96
2023-02-17T12:10:32.306Z,45.18
2023-02-17T12:11:34.651Z,44.70
2023-02-17T12:12:32.247Z,44.79
2023-02-17T12:13:32.320Z,44.12
2023-02-17T12:14:32.141Z,44.29
2023-02-17T12:15:32.101Z,44.48
2023-02-17T12:16:32.120Z,44.31
2023-02-17T12:17:32.158Z,44.22
2023-02-17T12:18:32.197Z,44.79
2023-02-17T12:19:32.171Z,44.68
2023-02-17T12:20:31.915Z,44.68
2023-02-17T12:21:31.867Z,44.48
2023-02-17T12:22:31.969Z,45.23
2023-02-17T12:23:31.781Z,45.25
2023-02-17T12:24:31.984Z,44.77
2023-02-17T12:25:31.702Z,45.25
2023-02-17T12:26:31.896Z,45.15
2023-02-17T12:27:31.628Z,44.99
2023-02-17T12:28:32.725Z,44.41
2023-02-17T12:29:31.539Z,43.57
2023-02-17T12:30:32.019Z,43.68
2023-02-17T12:31:31.547Z,42.55
2023-02-17T12:32:31.527Z,42.26
2023-02-17T12:33:31.390Z,41.82
2023-02-17T12:34:31.548Z,40.30
2023-02-17T12:35:31.307Z,39.74
2023-02-17T12:36:31.354Z,38.53
2023-02-17T12:37:31.228Z,37.79
2023-02-17T12:38:31.191Z,37.32
2023-02-17T12:39:31.149Z,36.08
2023-02-17T12:40:31.180Z,35.80
2023-02-17T12:41:31.080Z,35.12
2023-02-17T12:42:31.401Z,34.81
2023-02-17T12:43:31.016Z,35.39
2023-02-17T12:44:30.972Z,35.57
2023-02-17T12:45:31.037Z,35.86
2023-02-17T12:46:30.898Z,36.13
2023-02-17T12:47:32.058Z,36.71
2023-02-17T12:48:30.828Z,36.82
2023-02-17T12:49:31.048Z,36.15
2023-02-17T12:50:30.844Z,35.86
2023-02-17T12:51:30.721Z,35.66
2023-02-17T12:52:31.062Z,35.37
2023-02-17T12:53:30.644Z,35.57
2023-02-17T12:54:30.769Z,35.29